createdAt,value
2023-04-07T05:00:19.650Z,97939.66
2023-04-07T05:05:23.971Z,97939.91
2023-04-07T05:10:27.530Z,97936.56
2023-04-07T05:15:29.649Z,97939.66
2023-04-07T05:20:31.952Z,97937.19
2023-04-07T05:25:34.342Z,97940.28
2023-04-07T05:30:39.194Z,97940.75
2023-04-07T05:35:41.492Z,97938.03
2023-04-07T05:40:44.630Z,97929.78
2023-04-07T05:45:52.586Z,97932.66
2023-04-07T05:50:55.657Z,97932.81
2023-04-07T05:55:57.259Z,97929.44
2023-04-07T06:01:20.317Z,97932.94
2023-04-07T06:06:22.821Z,97929.34
2023-04-07T06:11:27.109Z,97934.94
2023-04-07T06:16:28.906Z,97933.25
2023-04-07T06:21:31.524Z,97931.59
2023-04-07T06:26:33.635Z,97932.03
2023-04-07T06:31:35.466Z,97929.50
2023-04-07T06:36:38.184Z,97924.34
2023-04-07T06:41:42.914Z,97936.16
2023-04-07T06:46:47.356Z,97937.75
2023-04-07T06:51:48.905Z,97931.81
2023-04-07T06:56:52.718Z,97928.94
2023-04-07T07:01:55.847Z,97921.91
2023-04-07T07:06:59.314Z,97932.00
2023-04-07T07:12:04.062Z,97937.75
2023-04-07T07:17:05.881Z,97929.59
2023-04-07T07:22:07.399Z,97936.22
2023-04-07T07:27:09.869Z,97942.94
2023-04-07T07:32:12.161Z,97943.84
2023-04-07T07:37:13.770Z,97947.41
2023-04-07T07:42:16.206Z,97957.22
2023-04-07T07:47:18.588Z,97954.53
2023-04-07T07:52:20.802Z,97963.03
2023-04-07T07:57:22.319Z,97973.72
2023-04-07T08:02:29.560Z,97975.13
2023-04-07T08:07:32.143Z,97967.97
2023-04-07T08:12:33.694Z,97973.06
2023-04-07T08:17:36.509Z,97978.09
2023-04-07T08:22:38.090Z,97974.19
2023-04-07T08:27:39.655Z,97983.84
2023-04-07T08:32:43.722Z,97977.44
2023-04-07T08:37:46.359Z,97982.69
2023-04-07T08:42:49.198Z,97983.75
2023-04-07T08:47:59.081Z,97979.78
2023-04-07T08:53:06.346Z,97975.00
2023-04-07T08:58:14.978Z,97977.81
2023-04-07T09:03:17.888Z,97971.91
2023-04-07T09:08:19.315Z,97978.00
2023-04-07T09:13:21.944Z,97970.91
2023-04-07T09:18:24.026Z,97971.88
2023-04-07T09:23:34.329Z,97964.78
2023-04-07T09:28:41.676Z,97968.69
2023-04-07T09:33:43.463Z,97962.22
2023-04-07T09:38:46.203Z,97966.44
2023-04-07T09:43:48.322Z,97958.47
2023-04-07T09:49:06.512Z,97952.16
2023-04-07T09:54:08.722Z,97958.00
2023-04-07T09:59:11.043Z,97958.84
2023-04-07T10:04:13.180Z,97951.38
2023-04-07T10:09:14.800Z,97961.00
2023-04-07T10:14:17.677Z,97961.06
2023-04-07T10:19:21.688Z,97957.31
2023-04-07T10:24:54.932Z,97958.94
2023-04-07T10:29:58.617Z,97953.50
2023-04-07T10:35:01.262Z,97962.66
2023-04-07T10:40:21.613Z,97943.66
2023-04-07T10:45:48.566Z,97947.50
2023-04-07T10:51:08.080Z,97949.16
2023-04-07T10:56:10.661Z,97956.19
2023-04-07T11:01:15.676Z,97961.88
2023-04-07T11:06:19.581Z,97955.47
2023-04-07T11:11:39.100Z,97961.41
2023-04-07T11:16:44.252Z,97960.19
2023-04-07T11:21:46.780Z,97956.13
2023-04-07T11:26:50.483Z,97948.97
2023-04-07T11:31:52.762Z,97954.78
2023-04-07T11:36:59.426Z,97963.00
2023-04-07T11:42:01.051Z,97948.00
2023-04-07T11:47:03.843Z,97954.69
2023-04-07T11:52:09.457Z,97943.63
2023-04-07T11:57:13.174Z,97935.81
2023-04-07T12:02:34.878Z,97935.81
2023-04-07T12:07:39.556Z,97942.84
2023-04-07T12:12:46.318Z,97934.72
2023-04-07T12:17:49.300Z,97934.47
2023-04-07T12:22:51.579Z,97942.03
2023-04-07T12:27:54.642Z,97937.84
2023-04-07T12:32:56.767Z,97946.22
2023-04-07T12:37:58.473Z,97950.56
2023-04-07T12:43:00.358Z,97946.28
2023-04-07T12:48:02.235Z,97938.09
2023-04-07T12:53:05.176Z,97934.81
2023-04-07T12:58:07.677Z,97927.38
2023-04-07T13:03:10.026Z,97936.56
2023-04-07T13:08:11.779Z,97937.47
2023-04-07T13:13:13.496Z,97933.53
2023-04-07T13:18:15.282Z,97938.69
2023-04-07T13:23:18.679Z,97936.16
2023-04-07T13:28:21.111Z,97937.34
2023-04-07T13:33:22.712Z,97936.38
2023-04-07T13:38:24.319Z,97927.47
2023-04-07T13:43:26.287Z,97926.06
2023-04-07T13:48:28.024Z,97921.00
2023-04-07T13:53:29.680Z,97922.28
2023-04-07T13:58:32.950Z,97907.00
2023-04-07T14:03:35.839Z,97914.06
2023-04-07T14:08:39.352Z,97913.28
2023-04-07T14:13:41.173Z,97914.72
2023-04-07T14:18:43.147Z,97914.66
2023-04-07T14:23:45.124Z,97908.81
2023-04-07T14:28:47.709Z,97913.53
2023-04-07T14:33:49.496Z,97911.88
2023-04-07T14:38:52.957Z,97912.03
2023-04-07T14:43:59.345Z,97901.03
2023-04-07T14:49:01.694Z,97911.31
2023-04-07T14:54:04.127Z,97917.47
2023-04-07T14:59:05.827Z,97920.78
2023-04-07T15:04:08.038Z,97912.16
2023-04-07T15:09:11.565Z,97905.59
2023-04-07T15:14:14.629Z,97905.22
2023-04-07T15:19:16.796Z,97912.31
2023-04-07T15:24:19.498Z,97916.81
2023-04-07T15:29:21.351Z,97920.59
2023-04-07T15:34:23.067Z,97920.66
2023-04-07T15:39:24.601Z,97922.09
2023-04-07T15:44:26.079Z,97923.34
2023-04-07T15:49:27.524Z,97920.94
2023-04-07T15:54:29.000Z,97918.59
2023-04-07T15:59:30.974Z,97918.38
2023-04-07T16:04:32.828Z,97921.81
2023-04-07T16:09:34.560Z,97921.63
2023-04-07T16:14:36.425Z,97928.44
2023-04-07T16:19:38.049Z,97930.81
2023-04-07T16:24:40.119Z,97928.94
2023-04-07T16:29:41.580Z,97942.19
2023-04-07T16:34:45.928Z,97947.97
2023-04-07T16:39:47.494Z,97953.56
2023-04-07T16:44:49.416Z,97952.50
2023-04-07T16:49:51.187Z,97964.28
2023-04-07T16:54:52.746Z,97974.38
2023-04-07T16:59:57.043Z,97976.72
2023-04-07T17:04:58.872Z,97976.78
2023-04-07T17:10:00.623Z,97975.03
2023-04-07T17:15:02.253Z,97988.88
2023-04-07T17:20:04.648Z,97986.56
2023-04-07T17:25:06.656Z,97997.47
2023-04-07T17:30:08.670Z,97996.66
2023-04-07T17:35:10.197Z,98013.66
2023-04-07T17:40:12.237Z,98019.50
2023-04-07T17:45:13.790Z,98028.84
2023-04-07T17:50:16.282Z,98038.53
2023-04-07T17:55:17.880Z,98039.66
2023-04-07T18:00:19.470Z,98048.31
2023-04-07T18:05:21.449Z,98048.34
2023-04-07T18:10:23.002Z,98053.97
2023-04-07T18:15:24.520Z,98059.28
2023-04-07T18:20:25.996Z,98067.09
2023-04-07T18:25:28.229Z,98073.38
2023-04-07T18:30:29.756Z,98068.56
2023-04-07T18:35:31.890Z,98067.19
2023-04-07T18:40:34.206Z,98083.50
2023-04-07T18:45:36.771Z,98083.16
2023-04-07T18:50:38.217Z,98090.78
2023-04-07T18:55:39.643Z,98094.72
2023-04-07T19:00:42.249Z,98093.50
2023-04-07T19:05:47.291Z,98092.31
2023-04-07T19:10:50.965Z,98098.63
2023-04-07T19:15:52.997Z,98101.88
2023-04-07T19:20:55.220Z,98099.88
2023-04-07T19:25:56.708Z,98101.31
2023-04-07T19:30:58.230Z,98113.09
2023-04-07T19:35:59.796Z,98114.03
2023-04-07T19:41:01.368Z,98122.00
2023-04-07T19:46:03.560Z,98118.69
2023-04-07T19:51:07.115Z,98119.13
2023-04-07T19:56:08.860Z,98122.59
2023-04-07T20:01:19.407Z,98127.13
2023-04-07T20:06:24.610Z,98126.09
2023-04-07T20:11:26.130Z,98137.84
2023-04-07T20:16:27.705Z,98132.03
2023-04-07T20:21:29.674Z,98128.97
2023-04-07T20:26:31.145Z,98127.94
2023-04-07T20:31:32.582Z,98120.44
2023-04-07T20:36:34.042Z,98131.19
2023-04-07T20:41:35.633Z,98122.41
2023-04-07T20:46:37.156Z,98127.72
2023-04-07T20:51:38.637Z,98122.03
2023-04-07T20:56:40.450Z,98117.03
2023-04-07T21:01:42.150Z,98124.44
2023-04-07T21:06:43.606Z,98123.78
2023-04-07T21:11:45.070Z,98123.25
2023-04-07T21:16:46.501Z,98123.69
2023-04-07T21:21:48.027Z,98118.78
2023-04-07T21:26:49.722Z,98112.03
2023-04-07T21:31:51.154Z,98118.16
2023-04-07T21:36:52.709Z,98116.41
2023-04-07T21:41:54.170Z,98112.00
2023-04-07T21:46:55.755Z,98111.75
2023-04-07T21:51:57.995Z,98112.59
2023-04-07T21:57:00.844Z,98116.06
